createdAt,value
2022-07-31T00:00:25.956Z,98606.22
2022-07-31T00:02:53.597Z,98605.63
2022-07-31T00:05:23.829Z,98616.19
2022-07-31T00:07:53.874Z,98612.63
2022-07-31T00:10:20.965Z,98606.41
2022-07-31T00:12:51.497Z,98610.78
2022-07-31T00:15:18.513Z,98610.09
2022-07-31T00:17:45.412Z,98617.28
2022-07-31T00:20:16.254Z,98615.22
2022-07-31T00:22:43.364Z,98617.78
2022-07-31T00:25:10.613Z,98607.06
2022-07-31T00:27:37.069Z,98620.94
2022-07-31T00:30:04.344Z,98619.78
2022-07-31T00:32:30.668Z,98617.09
2022-07-31T00:34:57.086Z,98616.06
2022-07-31T00:37:23.462Z,98615.31
2022-07-31T00:39:55.558Z,98613.25
2022-07-31T00:42:23.507Z,98608.22
2022-07-31T00:44:50.648Z,98610.91
2022-07-31T00:47:17.343Z,98620.69
2022-07-31T00:49:47.219Z,98604.28
2022-07-31T00:52:15.364Z,98609.59
2022-07-31T00:54:41.801Z,98608.72
2022-07-31T00:57:08.211Z,98613.47
2022-07-31T00:59:34.917Z,98611.03
2022-07-31T01:02:03.978Z,98609.31
2022-07-31T01:04:31.315Z,98611.94
2022-07-31T01:07:01.630Z,98614.50
2022-07-31T01:09:28.164Z,98618.66
2022-07-31T01:12:03.383Z,98616.09
2022-07-31T01:14:32.609Z,98610.63
2022-07-31T01:17:00.217Z,98613.44
2022-07-31T01:19:42.395Z,98614.84
2022-07-31T01:22:33.881Z,98606.75
2022-07-31T01:25:14.499Z,98611.78
2022-07-31T01:27:50.509Z,98604.00
2022-07-31T01:30:17.369Z,98604.78
2022-07-31T01:32:45.113Z,98600.97
2022-07-31T01:35:23.097Z,98603.53
2022-07-31T01:37:54.730Z,98609.09
2022-07-31T01:40:26.097Z,98600.41
2022-07-31T01:42:55.688Z,98606.09
2022-07-31T01:45:22.601Z,98604.34
2022-07-31T01:47:50.471Z,98606.91
2022-07-31T01:50:42.315Z,98604.03
2022-07-31T01:53:10.893Z,98604.03
2022-07-31T01:56:02.248Z,98603.91
2022-07-31T01:58:26.516Z,98608.03
2022-07-31T02:00:59.675Z,98608.00
2022-07-31T02:03:43.370Z,98600.34
2022-07-31T02:06:12.194Z,98600.81
2022-07-31T02:08:39.047Z,98596.47
2022-07-31T02:11:05.789Z,98589.13
2022-07-31T02:13:35.957Z,98591.69
2022-07-31T02:16:02.550Z,98588.38
2022-07-31T02:18:32.552Z,98587.34
2022-07-31T02:20:59.653Z,98584.38
2022-07-31T02:23:26.013Z,98580.91
2022-07-31T02:25:52.673Z,98586.09
2022-07-31T02:28:20.852Z,98577.31
2022-07-31T02:30:47.787Z,98581.09
2022-07-31T02:33:17.865Z,98581.16
2022-07-31T02:35:48.576Z,98575.72
2022-07-31T02:38:22.918Z,98576.47
2022-07-31T02:40:51.436Z,98572.47
2022-07-31T02:43:18.271Z,98572.19
2022-07-31T02:45:44.768Z,98572.31
2022-07-31T02:48:11.142Z,98569.53
2022-07-31T02:50:37.821Z,98565.38
2022-07-31T02:53:04.245Z,98561.88
2022-07-31T02:55:31.343Z,98566.63
2022-07-31T02:57:57.860Z,98557.16
2022-07-31T03:00:26.966Z,98558.38
2022-07-31T03:02:54.401Z,98548.81
2022-07-31T03:05:24.241Z,98548.91
2022-07-31T03:07:51.040Z,98552.84
2022-07-31T03:10:18.375Z,98552.03
2022-07-31T03:12:48.466Z,98549.56
2022-07-31T03:15:17.243Z,98549.25
2022-07-31T03:17:44.664Z,98545.06
2022-07-31T03:20:11.338Z,98544.84
2022-07-31T03:22:39.951Z,98542.25
2022-07-31T03:25:06.962Z,98551.47
2022-07-31T03:27:33.509Z,98551.19
2022-07-31T03:30:02.286Z,98544.22
2022-07-31T03:32:28.718Z,98548.31
2022-07-31T03:34:54.991Z,98544.47
2022-07-31T03:37:21.331Z,98545.13
2022-07-31T03:39:47.660Z,98550.88
2022-07-31T03:42:19.197Z,98540.00
2022-07-31T03:44:46.437Z,98544.03
2022-07-31T03:47:12.937Z,98549.56
2022-07-31T03:49:43.032Z,98549.56
2022-07-31T03:52:12.178Z,98550.06
2022-07-31T03:54:39.329Z,98552.13
2022-07-31T03:57:05.870Z,98554.59
2022-07-31T03:59:39.870Z,98553.28
2022-07-31T04:02:14.897Z,98555.28
2022-07-31T04:04:44.051Z,98548.00
2022-07-31T04:07:10.830Z,98549.16
2022-07-31T04:09:38.500Z,98557.22
2022-07-31T04:12:05.599Z,98560.56
2022-07-31T04:14:32.224Z,98560.94
2022-07-31T04:16:58.535Z,98558.41
2022-07-31T04:19:24.958Z,98546.91
2022-07-31T04:21:51.382Z,98548.69
2022-07-31T04:24:18.442Z,98549.44
2022-07-31T04:26:45.080Z,98559.66
2022-07-31T04:29:11.426Z,98555.81
2022-07-31T04:31:37.808Z,98554.19
2022-07-31T04:34:04.195Z,98552.16
2022-07-31T04:36:31.010Z,98560.34
2022-07-31T04:38:58.044Z,98560.91
2022-07-31T04:41:24.404Z,98570.44
2022-07-31T04:43:50.741Z,98568.00
2022-07-31T04:46:17.931Z,98568.91
2022-07-31T04:48:45.007Z,98570.50
2022-07-31T04:51:21.795Z,98569.13
2022-07-31T04:53:51.350Z,98573.00
2022-07-31T04:56:36.300Z,98565.31
2022-07-31T04:59:07.168Z,98562.16
2022-07-31T05:01:34.325Z,98563.44
2022-07-31T05:04:01.139Z,98551.09
2022-07-31T05:06:34.644Z,98561.81
2022-07-31T05:09:05.498Z,98561.13
2022-07-31T05:11:34.883Z,98559.00
2022-07-31T05:14:02.274Z,98566.72
2022-07-31T05:16:29.232Z,98564.97
2022-07-31T05:18:55.626Z,98570.88
2022-07-31T05:21:22.636Z,98571.63
2022-07-31T05:23:50.477Z,98573.16
2022-07-31T05:26:17.416Z,98576.09
2022-07-31T05:28:44.361Z,98568.00
2022-07-31T05:31:13.057Z,98567.25
2022-07-31T05:33:39.793Z,98574.06
2022-07-31T05:36:06.451Z,98580.38
2022-07-31T05:38:32.729Z,98576.59
2022-07-31T05:40:59.018Z,98585.13
2022-07-31T05:43:25.319Z,98575.06
2022-07-31T05:45:52.010Z,98583.50
2022-07-31T05:48:18.303Z,98581.16
2022-07-31T05:50:45.434Z,98578.03
2022-07-31T05:53:17.687Z,98582.38
2022-07-31T05:55:45.058Z,98581.88
2022-07-31T05:58:16.818Z,98578.78
2022-07-31T06:00:44.209Z,98583.28
2022-07-31T06:03:12.403Z,98585.91
2022-07-31T06:05:39.426Z,98574.13
2022-07-31T06:08:06.517Z,98574.44
2022-07-31T06:10:35.368Z,98591.81
2022-07-31T06:13:01.780Z,98582.88
2022-07-31T06:15:29.527Z,98582.09
2022-07-31T06:17:57.430Z,98580.53
2022-07-31T06:20:23.756Z,98589.28
2022-07-31T06:22:50.156Z,98573.13
2022-07-31T06:25:16.625Z,98582.03
2022-07-31T06:27:42.932Z,98584.84
2022-07-31T06:30:11.709Z,98591.81
2022-07-31T06:32:38.074Z,98580.47
2022-07-31T06:35:04.630Z,98586.75
2022-07-31T06:37:30.954Z,98580.25
2022-07-31T06:39:57.384Z,98579.00
2022-07-31T06:42:24.862Z,98573.34
2022-07-31T06:44:51.796Z,98579.28
2022-07-31T06:47:18.852Z,98581.66
2022-07-31T06:49:45.263Z,98572.47
2022-07-31T06:52:11.633Z,98569.78
2022-07-31T06:54:38.006Z,98574.91
2022-07-31T06:57:04.439Z,98566.25
2022-07-31T06:59:39.792Z,98569.78
2022-07-31T07:02:07.719Z,98568.28
2022-07-31T07:05:00.028Z,98565.06
2022-07-31T07:07:21.067Z,98564.53
2022-07-31T07:09:47.340Z,98574.28
2022-07-31T07:12:16.961Z,98576.94
2022-07-31T07:14:43.556Z,98566.28
2022-07-31T07:17:09.893Z,98571.44
2022-07-31T07:19:39.152Z,98569.84
2022-07-31T07:22:05.928Z,98574.50
2022-07-31T07:24:32.839Z,98582.66
2022-07-31T07:26:59.137Z,98575.56
2022-07-31T07:29:25.466Z,98578.41
2022-07-31T07:31:51.757Z,98584.03
2022-07-31T07:34:18.051Z,98578.16
2022-07-31T07:36:44.337Z,98573.09
2022-07-31T07:39:10.698Z,98574.25
2022-07-31T07:41:38.541Z,98580.28
2022-07-31T07:44:06.121Z,98570.00
2022-07-31T07:46:32.452Z,98574.91
2022-07-31T07:48:58.903Z,98574.75
2022-07-31T07:51:25.299Z,98563.50
2022-07-31T07:53:51.600Z,98566.19
2022-07-31T07:56:17.912Z,98561.06
2022-07-31T07:58:44.257Z,98555.97
2022-07-31T08:01:10.751Z,98559.78
2022-07-31T08:03:49.098Z,98557.47
2022-07-31T08:06:17.966Z,98564.63
2022-07-31T08:08:44.266Z,98556.69
2022-07-31T08:11:10.575Z,98556.75
2022-07-31T08:13:47.893Z,98549.69
2022-07-31T08:16:16.308Z,98551.00
2022-07-31T08:18:42.591Z,98550.25
2022-07-31T08:21:08.883Z,98545.91
2022-07-31T08:23:35.183Z,98546.59
2022-07-31T08:26:01.753Z,98552.75
2022-07-31T08:28:28.031Z,98533.09
2022-07-31T08:30:54.541Z,98539.88
2022-07-31T08:33:21.885Z,98539.34
2022-07-31T08:35:50.714Z,98540.78
2022-07-31T08:38:20.073Z,98537.78
2022-07-31T08:40:46.879Z,98530.47
2022-07-31T08:46:02.580Z,98516.78
2022-07-31T08:48:30.757Z,98516.25
2022-07-31T08:50:58.370Z,98522.53
2022-07-31T08:53:25.128Z,98517.88
2022-07-31T08:55:56.354Z,98517.25
2022-07-31T08:58:23.889Z,98522.66
2022-07-31T09:00:51.249Z,98516.56
2022-07-31T09:03:17.762Z,98519.06
2022-07-31T09:05:44.076Z,98513.44
2022-07-31T09:08:15.302Z,98514.34
2022-07-31T09:10:46.291Z,98511.47
2022-07-31T09:13:16.942Z,98509.53
2022-07-31T09:15:43.710Z,98511.19
2022-07-31T09:18:17.712Z,98509.94
2022-07-31T09:20:53.141Z,98506.22
2022-07-31T09:23:19.417Z,98510.47
2022-07-31T09:25:52.525Z,98495.38
2022-07-31T09:28:22.129Z,98498.78
2022-07-31T09:30:55.681Z,98495.84
2022-07-31T09:33:23.024Z,98492.84
2022-07-31T09:35:49.891Z,98494.31
2022-07-31T09:38:16.539Z,98495.31
2022-07-31T09:40:56.909Z,98486.09
2022-07-31T09:43:31.394Z,98484.50
2022-07-31T09:45:59.339Z,98486.72
2022-07-31T09:48:26.272Z,98479.63
2022-07-31T09:50:54.829Z,98480.09
2022-07-31T09:53:21.550Z,98480.75
2022-07-31T09:55:54.733Z,98480.84
2022-07-31T09:58:21.863Z,98476.91
2022-07-31T10:00:49.950Z,98473.84
2022-07-31T10:03:18.682Z,98475.63
2022-07-31T10:05:46.417Z,98469.91
2022-07-31T10:08:17.280Z,98466.72
2022-07-31T10:10:43.724Z,98458.81
2022-07-31T10:13:11.743Z,98463.06
2022-07-31T10:15:39.625Z,98455.44
2022-07-31T10:18:08.525Z,98449.38
2022-07-31T10:20:35.536Z,98460.56
2022-07-31T10:23:05.551Z,98449.69
2022-07-31T10:25:33.197Z,98457.13
2022-07-31T10:27:59.984Z,98456.00
2022-07-31T10:30:28.932Z,98448.13
2022-07-31T10:32:55.714Z,98452.00
2022-07-31T10:35:22.666Z,98446.34
2022-07-31T10:37:55.119Z,98449.81
2022-07-31T10:40:36.684Z,98446.44
2022-07-31T10:43:26.736Z,98440.44
2022-07-31T10:45:53.990Z,98428.09
2022-07-31T10:48:20.645Z,98426.25
2022-07-31T10:50:47.198Z,98431.31
2022-07-31T10:53:16.045Z,98431.75
2022-07-31T10:55:42.543Z,98429.84
2022-07-31T10:58:09.144Z,98441.13
2022-07-31T11:00:35.992Z,98442.31
2022-07-31T11:03:12.193Z,98440.78
2022-07-31T11:06:02.107Z,98426.72
2022-07-31T11:08:25.243Z,98439.63
2022-07-31T11:11:03.404Z,98433.28
2022-07-31T11:13:33.609Z,98429.44
2022-07-31T11:16:04.289Z,98441.31
2022-07-31T11:18:34.326Z,98431.28
2022-07-31T11:21:13.315Z,98432.06
2022-07-31T11:24:02.168Z,98422.59
2022-07-31T11:26:33.404Z,98414.97
2022-07-31T11:30:01.157Z,98418.75
2022-07-31T11:32:15.456Z,98406.25
2022-07-31T11:34:53.303Z,98404.94
2022-07-31T11:37:22.693Z,98397.13
2022-07-31T11:39:52.449Z,98399.00
2022-07-31T11:42:19.768Z,98400.09
2022-07-31T11:44:52.169Z,98408.22
2022-07-31T11:48:09.919Z,98414.19
2022-07-31T11:50:05.026Z,98404.28
2022-07-31T11:52:36.762Z,98396.78
2022-07-31T11:55:09.452Z,98387.22
2022-07-31T11:57:51.587Z,98400.28
2022-07-31T12:00:26.883Z,98402.38
2022-07-31T12:02:57.542Z,98405.31
2022-07-31T12:05:38.914Z,98410.94
2022-07-31T12:08:06.211Z,98398.75
2022-07-31T12:10:32.570Z,98407.00
2022-07-31T12:12:58.886Z,98417.19
2022-07-31T12:15:25.221Z,98405.63
2022-07-31T12:17:59.627Z,98408.19
2022-07-31T12:20:35.411Z,98399.03
2022-07-31T12:23:02.590Z,98403.69
2022-07-31T12:25:38.805Z,98404.38
2022-07-31T12:28:07.236Z,98402.91
2022-07-31T12:30:33.566Z,98402.97
2022-07-31T12:33:07.461Z,98395.34
2022-07-31T12:35:54.527Z,98403.53
2022-07-31T12:38:43.293Z,98403.25
2022-07-31T12:41:11.997Z,98398.88
2022-07-31T12:43:38.295Z,98403.41
2022-07-31T12:46:07.564Z,98407.53
2022-07-31T12:48:39.307Z,98392.56
2022-07-31T12:51:07.546Z,98390.44
2022-07-31T12:53:33.955Z,98383.88
2022-07-31T12:56:00.307Z,98375.34
2022-07-31T12:58:26.790Z,98374.22
2022-07-31T13:00:54.757Z,98368.25
2022-07-31T13:03:21.366Z,98371.34
2022-07-31T13:05:51.919Z,98357.81
2022-07-31T13:08:18.534Z,98357.06
2022-07-31T13:10:44.873Z,98352.84
2022-07-31T13:13:11.174Z,98353.56
2022-07-31T13:15:37.458Z,98355.06
2022-07-31T13:18:05.044Z,98346.31
2022-07-31T13:20:31.522Z,98347.16
2022-07-31T13:22:59.196Z,98350.97
2022-07-31T13:25:26.515Z,98345.31
2022-07-31T13:27:53.863Z,98339.81
2022-07-31T13:30:20.233Z,98338.34
2022-07-31T13:32:46.783Z,98331.63
2022-07-31T13:35:27.235Z,98326.66
2022-07-31T13:37:54.612Z,98313.66
2022-07-31T13:40:40.972Z,98319.44
2022-07-31T13:43:07.432Z,98321.81
2022-07-31T13:45:33.718Z,98303.91
2022-07-31T13:48:01.619Z,98306.34
2022-07-31T13:50:29.670Z,98309.59
2022-07-31T13:52:57.715Z,98308.66
2022-07-31T13:55:24.634Z,98302.91
2022-07-31T13:57:51.110Z,98307.72
2022-07-31T14:00:19.663Z,98299.72
2022-07-31T14:02:46.576Z,98295.91
2022-07-31T14:05:13.557Z,98297.19
2022-07-31T14:07:45.259Z,98294.28
2022-07-31T14:10:14.941Z,98295.78
2022-07-31T14:12:43.578Z,98293.53
2022-07-31T14:15:10.167Z,98290.69
2022-07-31T14:17:36.521Z,98291.00
2022-07-31T14:20:03.026Z,98287.53
2022-07-31T14:22:29.686Z,98289.69
2022-07-31T14:24:56.058Z,98287.72
2022-07-31T14:27:22.340Z,98296.13
2022-07-31T14:29:48.707Z,98291.00
2022-07-31T14:32:15.053Z,98285.19
2022-07-31T14:34:41.356Z,98291.84
2022-07-31T14:37:08.081Z,98282.78
2022-07-31T14:39:34.573Z,98274.41
2022-07-31T14:42:00.862Z,98286.34
2022-07-31T14:44:28.624Z,98282.38
2022-07-31T14:46:55.415Z,98277.69
2022-07-31T14:49:21.936Z,98286.53
2022-07-31T14:51:50.967Z,98287.34
2022-07-31T14:54:17.753Z,98284.09
2022-07-31T14:57:00.684Z,98278.16
2022-07-31T14:59:29.035Z,98281.63
2022-07-31T15:01:55.739Z,98289.31
2022-07-31T15:04:22.926Z,98278.38
2022-07-31T15:06:56.359Z,98284.38
2022-07-31T15:09:30.453Z,98279.06
2022-07-31T15:12:00.463Z,98277.91
2022-07-31T15:14:31.532Z,98272.50
2022-07-31T15:16:58.397Z,98267.94
2022-07-31T15:19:25.360Z,98281.59
2022-07-31T15:22:11.194Z,98282.03
2022-07-31T15:24:43.694Z,98279.69
2022-07-31T15:27:15.678Z,98282.44
2022-07-31T15:30:05.602Z,98277.59
2022-07-31T15:32:32.884Z,98274.63
2022-07-31T15:34:59.517Z,98270.97
2022-07-31T15:37:26.287Z,98266.09
2022-07-31T15:40:02.593Z,98265.84
2022-07-31T15:42:33.002Z,98275.00
2022-07-31T15:45:02.275Z,98275.22
2022-07-31T15:47:31.296Z,98275.50
2022-07-31T15:49:58.023Z,98272.22
2022-07-31T15:52:24.841Z,98265.56
2022-07-31T15:54:52.596Z,98275.84
2022-07-31T15:57:23.014Z,98268.03
2022-07-31T15:59:50.108Z,98267.38
2022-07-31T16:02:16.642Z,98264.41
2022-07-31T16:04:53.304Z,98264.69
2022-07-31T16:08:31.562Z,98257.38
2022-07-31T16:10:15.507Z,98255.03
2022-07-31T16:12:43.571Z,98260.00
2022-07-31T16:15:11.308Z,98258.75
2022-07-31T16:17:40.754Z,98257.09
2022-07-31T16:20:08.712Z,98247.00
2022-07-31T16:22:39.213Z,98257.66
2022-07-31T16:25:06.157Z,98255.25
2022-07-31T16:27:32.465Z,98250.72
2022-07-31T16:30:01.083Z,98249.09
2022-07-31T16:32:28.106Z,98244.34
2022-07-31T16:34:58.462Z,98246.16
2022-07-31T16:37:52.349Z,98243.81
2022-07-31T16:40:30.069Z,98241.09
2022-07-31T16:42:59.474Z,98234.38
2022-07-31T16:45:25.775Z,98242.38
2022-07-31T16:47:52.464Z,98243.19
2022-07-31T16:50:18.913Z,98238.59
2022-07-31T16:52:45.216Z,98241.03
2022-07-31T16:55:11.570Z,98244.00
2022-07-31T16:57:37.854Z,98246.16
2022-07-31T17:00:06.123Z,98252.97
2022-07-31T17:02:32.427Z,98249.25
2022-07-31T17:04:58.721Z,98248.09
2022-07-31T17:07:25.020Z,98238.16
2022-07-31T17:09:51.730Z,98241.09
2022-07-31T17:12:18.200Z,98235.00
2022-07-31T17:14:44.496Z,98239.16
2022-07-31T17:17:11.509Z,98243.09
2022-07-31T17:19:45.322Z,98237.72
2022-07-31T17:22:17.908Z,98239.22
2022-07-31T17:24:50.050Z,98242.56
2022-07-31T17:27:16.463Z,98245.50
2022-07-31T17:29:42.879Z,98244.84
2022-07-31T17:32:11.382Z,98238.28
2022-07-31T17:34:37.961Z,98241.38
2022-07-31T17:37:04.754Z,98241.28
2022-07-31T17:39:31.412Z,98243.31
2022-07-31T17:41:58.030Z,98248.56
2022-07-31T17:44:24.345Z,98242.00
2022-07-31T17:46:51.362Z,98240.28
2022-07-31T17:49:20.308Z,98243.22
2022-07-31T17:52:08.247Z,98238.75
2022-07-31T17:54:33.349Z,98243.03
2022-07-31T17:56:59.968Z,98247.13
2022-07-31T17:59:26.433Z,98244.50
2022-07-31T18:01:59.394Z,98245.41
2022-07-31T18:04:26.206Z,98247.00
2022-07-31T18:06:54.805Z,98246.28
2022-07-31T18:09:23.110Z,98248.63
2022-07-31T18:11:49.927Z,98246.59
2022-07-31T18:14:16.776Z,98247.06
2022-07-31T18:16:44.657Z,98251.41
2022-07-31T18:19:11.093Z,98259.38
2022-07-31T18:21:37.398Z,98250.44
2022-07-31T18:24:05.474Z,98252.75
2022-07-31T18:26:31.929Z,98254.94
2022-07-31T18:28:58.219Z,98249.50
2022-07-31T18:31:31.863Z,98256.31
2022-07-31T18:33:58.829Z,98251.13
2022-07-31T18:36:25.130Z,98256.44
2022-07-31T18:38:54.471Z,98262.56
2022-07-31T18:41:20.903Z,98257.34
2022-07-31T18:43:47.696Z,98258.38
2022-07-31T18:46:14.019Z,98269.94
2022-07-31T18:48:40.297Z,98269.03
2022-07-31T18:51:06.771Z,98267.63
2022-07-31T18:53:33.192Z,98271.66
2022-07-31T18:55:59.603Z,98265.00
2022-07-31T18:58:25.944Z,98272.91
2022-07-31T19:00:55.061Z,98271.16
2022-07-31T19:03:22.017Z,98269.75
2022-07-31T19:05:50.048Z,98271.00
2022-07-31T19:08:16.450Z,98265.81
2022-07-31T19:10:42.763Z,98270.59
2022-07-31T19:13:09.146Z,98268.81
2022-07-31T19:15:45.516Z,98266.50
2022-07-31T19:18:14.052Z,98277.03
2022-07-31T19:20:56.153Z,98276.53
2022-07-31T19:23:24.981Z,98280.47
2022-07-31T19:26:02.544Z,98278.41
2022-07-31T19:28:30.991Z,98280.28
2022-07-31T19:30:57.324Z,98288.06
2022-07-31T19:33:23.648Z,98281.25
2022-07-31T19:35:58.616Z,98280.13
2022-07-31T19:38:27.769Z,98291.06
2022-07-31T19:40:54.352Z,98295.16
2022-07-31T19:43:20.704Z,98288.25
2022-07-31T19:46:09.796Z,98279.75
2022-07-31T19:48:33.347Z,98285.03
2022-07-31T19:50:59.659Z,98286.81
2022-07-31T19:53:25.934Z,98289.22
2022-07-31T19:55:52.231Z,98287.75
2022-07-31T19:58:21.771Z,98287.47
2022-07-31T20:00:48.068Z,98287.91
2022-07-31T20:03:14.482Z,98286.84
2022-07-31T20:05:41.080Z,98282.50
2022-07-31T20:08:07.418Z,98285.56
2022-07-31T20:10:33.750Z,98286.81
2022-07-31T20:13:00.051Z,98286.94
2022-07-31T20:15:26.398Z,98284.47
2022-07-31T20:17:54.023Z,98280.72
2022-07-31T20:20:20.351Z,98269.44
2022-07-31T20:22:46.673Z,98277.75
2022-07-31T20:25:19.787Z,98272.09
2022-07-31T20:27:46.502Z,98274.09
2022-07-31T20:30:12.970Z,98276.88
2022-07-31T20:32:41.216Z,98277.47
2022-07-31T20:35:29.263Z,98275.41
2022-07-31T20:38:02.236Z,98278.09
2022-07-31T20:40:28.897Z,98275.19
2022-07-31T20:42:55.534Z,98282.34
2022-07-31T20:45:22.257Z,98280.94
2022-07-31T20:47:48.659Z,98279.72
2022-07-31T20:50:15.004Z,98276.56
2022-07-31T20:52:48.132Z,98275.25
2022-07-31T20:55:14.883Z,98271.31
2022-07-31T20:57:41.407Z,98274.03
2022-07-31T21:00:08.726Z,98270.38
2022-07-31T21:02:35.063Z,98263.69
2022-07-31T21:05:02.092Z,98260.03
2022-07-31T21:07:30.131Z,98264.94
2022-07-31T21:09:56.867Z,98261.94
2022-07-31T21:12:23.220Z,98262.66
2022-07-31T21:14:49.578Z,98257.50
2022-07-31T21:17:15.899Z,98260.47
2022-07-31T21:19:42.188Z,98255.00
2022-07-31T21:22:08.671Z,98259.84
2022-07-31T21:24:35.234Z,98263.28
2022-07-31T21:27:02.788Z,98265.88
2022-07-31T21:29:29.322Z,98262.78
2022-07-31T21:31:57.378Z,98263.41
2022-07-31T21:34:23.882Z,98264.22
2022-07-31T21:36:50.884Z,98259.16
2022-07-31T21:39:18.756Z,98251.38
2022-07-31T21:41:45.595Z,98262.97
2022-07-31T21:44:12.794Z,98250.97
2022-07-31T21:46:43.981Z,98259.94
2022-07-31T21:49:17.584Z,98265.06
2022-07-31T21:51:44.119Z,98261.53
2022-07-31T21:54:13.942Z,98263.69
2022-07-31T21:56:40.248Z,98265.25
2022-07-31T21:59:06.629Z,98270.59
2022-07-31T22:01:32.979Z,98267.63
2022-07-31T22:03:59.341Z,98268.44
2022-07-31T22:06:44.345Z,98269.91
2022-07-31T22:09:10.647Z,98267.00
2022-07-31T22:11:37.247Z,98270.09
2022-07-31T22:14:03.662Z,98271.13
2022-07-31T22:16:33.213Z,98271.75
2022-07-31T22:18:59.655Z,98277.38
2022-07-31T22:21:26.037Z,98272.91
2022-07-31T22:23:52.569Z,98282.28
2022-07-31T22:26:18.882Z,98280.75
2022-07-31T22:28:46.726Z,98276.28
2022-07-31T22:31:13.312Z,98270.09
2022-07-31T22:33:39.938Z,98278.97
2022-07-31T22:36:09.245Z,98276.72
2022-07-31T22:38:37.832Z,98273.78
2022-07-31T22:41:04.463Z,98283.44
2022-07-31T22:44:14.093Z,98281.75
2022-07-31T22:46:17.271Z,98275.97
2022-07-31T22:48:45.019Z,98283.31
2022-07-31T22:51:14.370Z,98273.19
2022-07-31T22:53:41.760Z,98274.25
2022-07-31T22:56:08.056Z,98274.78
2022-07-31T22:58:35.002Z,98274.56
2022-07-31T23:01:01.300Z,98278.72
2022-07-31T23:03:27.623Z,98269.91
2022-07-31T23:06:03.558Z,98275.59
2022-07-31T23:08:40.251Z,98271.88
2022-07-31T23:11:06.585Z,98272.53
2022-07-31T23:13:32.889Z,98278.44
2022-07-31T23:15:59.627Z,98276.53
2022-07-31T23:18:26.190Z,98283.38
2022-07-31T23:20:52.472Z,98279.44
2022-07-31T23:23:18.773Z,98272.72
2022-07-31T23:25:45.066Z,98270.66
2022-07-31T23:28:11.566Z,98268.97
2022-07-31T23:30:38.104Z,98268.47
2022-07-31T23:33:04.431Z,98271.06
2022-07-31T23:35:30.727Z,98263.38
2022-07-31T23:37:57.023Z,98257.47
2022-07-31T23:40:23.371Z,98258.53
2022-07-31T23:42:49.707Z,98260.81
2022-07-31T23:45:16.273Z,98256.44
2022-07-31T23:47:45.031Z,98258.94
2022-07-31T23:50:14.533Z,98242.81
2022-07-31T23:52:41.193Z,98242.16
2022-07-31T23:55:07.577Z,98245.16
2022-07-31T23:57:34.412Z,98244.13
